Time,TemperatureF,DewpointF,PressureIn,WindDirection,WindDirectionDegrees,WindSpeedMPH,WindSpeedGustMPH,Humidity,HourlyPrecipIn,Conditions,Clouds,dailyrainin,SoftwareType,DateUTC
2013-04-02 00:00:00,70.1,65.0,30.04,WNW,284,2.0,2.0,84,0.00,,,0.00,Wunderground v.1.15,2013-04-02 04:00:00,
2013-04-02 00:10:00,69.9,64.8,30.04,West,281,2.0,2.0,84,0.00,,,0.00,Wunderground v.1.15,2013-04-02 04:10:00,
2013-04-02 00:20:00,69.8,64.7,30.04,NW,309,2.0,3.0,84,0.00,,,0.00,Wunderground v.1.15,2013-04-02 04:20:00,
2013-04-02 00:30:00,69.9,64.8,30.04,WNW,295,4.0,4.0,84,0.00,,,0.00,Wunderground v.1.15,2013-04-02 04:30:00,
2013-04-02 00:40:00,69.9,64.8,30.04,WNW,288,3.0,3.0,84,0.00,,,0.00,Wunderground v.1.15,2013-04-02 04:40:00,
2013-04-02 00:50:00,69.8,64.7,30.04,WNW,289,3.0,5.0,84,0.00,,,0.00,Wunderground v.1.15,2013-04-02 04:50:00,
2013-04-02 01:00:00,69.6,64.5,30.04,NW,314,3.0,3.0,84,0.00,,,0.00,Wunderground v.1.15,2013-04-02 05:00:00,
2013-04-02 01:10:00,69.4,64.7,30.03,WNW,300,3.0,5.0,85,0.00,,,0.00,Wunderground v.1.15,2013-04-02 05:10:00,
2013-04-02 01:20:00,69.3,64.6,30.03,WNW,288,3.0,3.0,85,0.00,,,0.00,Wunderground v.1.15,2013-04-02 05:20:00,
2013-04-02 01:30:00,69.2,64.8,30.03,West,268,3.0,5.0,86,0.00,,,0.00,Wunderground v.1.15,2013-04-02 05:30:00,
2013-04-02 01:40:00,69.0,64.6,30.03,West,277,3.0,3.0,86,0.00,,,0.00,Wunderground v.1.15,2013-04-02 05:40:00,
2013-04-02 01:50:00,68.8,64.8,30.03,West,278,2.0,2.0,87,0.00,,,0.00,Wunderground v.1.15,2013-04-02 05:50:00,
2013-04-02 02:00:00,68.6,64.6,30.03,West,262,2.0,2.0,87,0.00,,,0.00,Wunderground v.1.15,2013-04-02 06:00:00,
2013-04-02 02:10:00,68.0,64.3,30.03,WSW,257,1.0,1.0,88,0.00,,,0.00,Wunderground v.1.15,2013-04-02 06:10:00,
2013-04-02 02:20:00,67.6,64.2,30.03,West,276,1.0,1.0,89,0.00,,,0.00,Wunderground v.1.15,2013-04-02 06:20:00,
2013-04-02 02:30:00,67.2,64.2,30.03,WNW,283,2.0,3.0,90,0.00,,,0.00,Wunderground v.1.15,2013-04-02 06:30:00,
2013-04-02 02:40:00,66.9,63.9,30.02,WNW,292,2.0,2.0,90,0.00,,,0.00,Wunderground v.1.15,2013-04-02 06:40:00,
2013-04-02 02:50:00,66.7,64.0,30.02,West,274,2.0,2.0,91,0.00,,,0.00,Wunderground v.1.15,2013-04-02 06:50:00,
2013-04-02 03:00:00,66.6,63.9,30.02,WSW,257,1.0,2.0,91,0.00,,,0.00,Wunderground v.1.15,2013-04-02 07:00:00,
2013-04-02 03:10:00,66.5,64.1,30.01,WNW,292,2.0,3.0,92,0.00,,,0.00,Wunderground v.1.15,2013-04-02 07:10:00,
2013-04-02 03:20:00,66.8,64.7,30.01,WNW,286,3.0,3.0,93,0.00,,,0.00,Wunderground v.1.15,2013-04-02 07:20:00,
2013-04-02 03:30:00,67.1,65.0,30.01,WNW,288,3.0,3.0,93,0.00,,,0.00,Wunderground v.1.15,2013-04-02 07:30:00,
2013-04-02 03:40:00,67.1,65.0,30.01,West,280,2.0,3.0,93,0.00,,,0.00,Wunderground v.1.15,2013-04-02 07:40:00,
2013-04-02 03:50:00,67.1,65.0,30.01,WNW,293,2.0,2.0,93,0.00,,,0.00,Wunderground v.1.15,2013-04-02 07:50:00,
2013-04-02 04:00:00,66.9,64.8,30.01,WNW,298,2.0,3.0,93,0.00,,,0.00,Wunderground v.1.15,2013-04-02 08:00:00,
2013-04-02 04:10:00,66.9,65.1,30.01,WNW,301,3.0,6.0,94,0.00,,,0.00,Wunderground v.1.15,2013-04-02 08:10:00,
2013-04-02 04:20:00,66.8,65.0,30.00,NW,308,3.0,3.0,94,0.00,,,0.00,Wunderground v.1.15,2013-04-02 08:20:00,
2013-04-02 04:30:00,66.9,65.1,30.00,West,281,3.0,3.0,94,0.00,,,0.00,Wunderground v.1.15,2013-04-02 08:30:00,
2013-04-02 04:40:00,66.9,65.4,30.00,WNW,291,3.0,3.0,95,0.00,,,0.00,Wunderground v.1.15,2013-04-02 08:40:00,
2013-04-02 04:50:00,66.9,65.4,30.01,NW,314,3.0,3.0,95,0.00,,,0.00,Wunderground v.1.15,2013-04-02 08:50:00,
2013-04-02 05:00:00,66.7,65.2,30.01,WNW,283,2.0,3.0,95,0.00,,,0.00,Wunderground v.1.15,2013-04-02 09:00:00,
2013-04-02 05:10:00,66.7,65.2,30.01,WNW,295,2.0,2.0,95,0.00,,,0.00,Wunderground v.1.15,2013-04-02 09:10:00,
2013-04-02 05:20:00,66.6,65.4,30.01,WNW,298,3.0,3.0,96,0.00,,,0.00,Wunderground v.1.15,2013-04-02 09:20:00,
2013-04-02 05:30:00,66.6,65.4,30.01,WNW,291,2.0,3.0,96,0.00,,,0.00,Wunderground v.1.15,2013-04-02 09:30:00,
2013-04-02 05:40:00,66.4,65.2,30.02,West,278,1.0,1.0,96,0.00,,,0.00,Wunderground v.1.15,2013-04-02 09:40:00,
2013-04-02 05:50:00,66.3,65.1,30.02,SW,231,2.0,2.0,96,0.00,,,0.00,Wunderground v.1.15,2013-04-02 09:50:00,
2013-04-02 06:00:00,66.4,65.2,30.02,NW,308,3.0,4.0,96,0.00,,,0.00,Wunderground v.1.15,2013-04-02 10:00:00,
2013-04-02 06:10:00,66.4,65.2,30.03,WNW,298,4.0,5.0,96,0.00,,,0.00,Wunderground v.1.15,2013-04-02 10:10:00,
2013-04-02 06:20:00,66.4,65.2,30.03,WNW,296,4.0,4.0,96,0.00,,,0.00,Wunderground v.1.15,2013-04-02 10:20:00,
2013-04-02 06:30:00,66.4,65.5,30.03,WNW,295,4.0,4.0,97,0.00,,,0.00,Wunderground v.1.15,2013-04-02 10:30:00,
2013-04-02 06:40:00,66.3,65.4,30.03,West,267,3.0,3.0,97,0.00,,,0.00,Wunderground v.1.15,2013-04-02 10:40:00,
2013-04-02 06:50:00,66.1,65.2,30.03,WNW,292,3.0,7.0,97,0.00,,,0.00,Wunderground v.1.15,2013-04-02 10:50:00,
2013-04-02 07:00:00,66.0,65.1,30.04,NW,311,4.0,4.0,97,0.00,,,0.00,Wunderground v.1.15,2013-04-02 11:00:00,
2013-04-02 07:10:00,65.8,64.9,30.04,WNW,302,4.0,4.0,97,0.00,,,0.00,Wunderground v.1.15,2013-04-02 11:10:00,
2013-04-02 07:20:00,65.9,65.0,30.05,WNW,292,2.0,2.0,97,0.00,,,0.00,Wunderground v.1.15,2013-04-02 11:20:00,
2013-04-02 07:30:00,65.9,65.0,30.05,NW,304,2.0,3.0,97,0.00,,,0.00,Wunderground v.1.15,2013-04-02 11:30:00,
2013-04-02 07:40:00,65.5,64.6,30.05,WNW,298,4.0,4.0,97,0.00,,,0.00,Wunderground v.1.15,2013-04-02 11:40:00,
2013-04-02 07:50:00,65.5,64.6,30.06,NW,321,4.0,4.0,97,0.00,,,0.00,Wunderground v.1.15,2013-04-02 11:50:00,
2013-04-02 08:00:00,65.5,64.6,30.06,WNW,300,3.0,3.0,97,0.00,,,0.00,Wunderground v.1.15,2013-04-02 12:00:00,
2013-04-02 08:10:00,65.8,64.9,30.07,WNW,293,3.0,3.0,97,0.00,,,0.00,Wunderground v.1.15,2013-04-02 12:10:00,
2013-04-02 08:20:00,65.8,64.9,30.07,NW,312,4.0,4.0,97,0.00,,,0.00,Wunderground v.1.15,2013-04-02 12:20:00,
2013-04-02 08:30:00,66.0,65.1,30.08,NW,320,4.0,6.0,97,0.00,,,0.00,Wunderground v.1.15,2013-04-02 12:30:00,
2013-04-02 08:40:00,66.4,65.5,30.08,NW,312,3.0,3.0,97,0.00,,,0.00,Wunderground v.1.15,2013-04-02 12:40:00,
2013-04-02 08:50:00,66.9,66.0,30.08,NW,318,3.0,7.0,97,0.00,,,0.00,Wunderground v.1.15,2013-04-02 12:50:00,
2013-04-02 09:00:00,67.4,65.9,30.09,NNW,338,5.0,5.0,95,0.00,,,0.00,Wunderground v.1.15,2013-04-02 13:00:00,
2013-04-02 09:10:00,68.1,66.6,30.09,NW,326,5.0,5.0,95,0.00,,,0.00,Wunderground v.1.15,2013-04-02 13:10:00,
2013-04-02 09:20:00,68.7,66.9,30.09,NNW,342,4.0,7.0,94,0.00,,,0.00,Wunderground v.1.15,2013-04-02 13:20:00,
2013-04-02 09:30:00,69.5,66.8,30.09,NW,314,5.0,5.0,91,0.00,,,0.00,Wunderground v.1.15,2013-04-02 13:30:00,
2013-04-02 09:40:00,70.6,66.9,30.09,West,274,3.0,5.0,88,0.00,,,0.00,Wunderground v.1.15,2013-04-02 13:40:00,
2013-04-02 09:50:00,71.0,66.9,30.09,NW,309,5.0,5.0,87,0.00,,,0.00,Wunderground v.1.15,2013-04-02 13:50:00,
2013-04-02 10:00:00,72.1,67.0,30.09,NW,309,4.0,4.0,84,0.00,,,0.00,Wunderground v.1.15,2013-04-02 14:00:00,
2013-04-02 10:10:00,72.6,66.4,30.09,NNW,328,5.0,6.0,81,0.00,,,0.00,Wunderground v.1.15,2013-04-02 14:10:00,
2013-04-02 10:20:00,73.3,66.8,30.09,NW,323,6.0,6.0,80,0.00,,,0.00,Wunderground v.1.15,2013-04-02 14:20:00,
2013-04-02 10:30:00,74.0,66.0,30.09,NW,304,4.0,4.0,76,0.00,,,0.00,Wunderground v.1.15,2013-04-02 14:30:00,
2013-04-02 10:40:00,74.4,66.0,30.09,WNW,285,4.0,4.0,75,0.00,,,0.00,Wunderground v.1.15,2013-04-02 14:40:00,
2013-04-02 10:50:00,74.9,66.1,30.09,NE,37,4.0,4.0,74,0.00,,,0.00,Wunderground v.1.15,2013-04-02 14:50:00,
2013-04-02 11:00:00,75.9,66.6,30.09,NW,304,3.0,3.0,73,0.00,,,0.00,Wunderground v.1.15,2013-04-02 15:00:00,
2013-04-02 11:10:00,76.7,67.0,30.09,NNE,17,3.0,4.0,72,0.00,,,0.00,Wunderground v.1.15,2013-04-02 15:10:00,
2013-04-02 11:20:00,76.6,66.1,30.10,NNW,338,3.0,3.0,70,0.00,,,0.00,Wunderground v.1.15,2013-04-02 15:20:00,
2013-04-02 11:30:00,77.4,66.8,30.09,WNW,300,2.0,4.0,70,0.00,,,0.00,Wunderground v.1.15,2013-04-02 15:30:00,
2013-04-02 11:40:00,77.6,65.3,30.09,ENE,72,3.0,4.0,66,0.00,,,0.00,Wunderground v.1.15,2013-04-02 15:40:00,
2013-04-02 11:50:00,78.3,66.4,30.09,East,100,3.0,5.0,67,0.00,,,0.00,Wunderground v.1.15,2013-04-02 15:50:00,
2013-04-02 12:00:00,77.8,67.2,30.09,ENE,75,5.0,6.0,70,0.00,,,0.00,Wunderground v.1.15,2013-04-02 16:00:00,
2013-04-02 12:20:00,77.0,67.3,30.10,ENE,68,5.0,6.0,72,0.00,,,0.00,Wunderground v.1.15,2013-04-02 16:20:00,
2013-04-02 12:30:00,76.6,66.9,30.10,SE,129,5.0,5.0,72,0.00,,,0.00,Wunderground v.1.15,2013-04-02 16:30:00,
2013-04-02 12:40:00,77.2,67.1,30.10,ENE,57,4.0,4.0,71,0.00,,,0.00,Wunderground v.1.15,2013-04-02 16:40:00,
2013-04-02 12:50:00,77.7,68.0,30.09,East,99,5.0,9.0,72,0.00,,,0.00,Wunderground v.1.15,2013-04-02 16:50:00,
2013-04-02 13:00:00,77.3,66.7,30.09,East,84,5.0,7.0,70,0.00,,,0.00,Wunderground v.1.15,2013-04-02 17:00:00,
2013-04-02 13:10:00,77.8,67.6,30.08,ESE,113,4.0,4.0,71,0.00,,,0.00,Wunderground v.1.15,2013-04-02 17:10:00,
2013-04-02 16:30:00,78.6,66.3,30.03,ESE,110,5.0,5.0,66,0.00,,,0.00,Wunderground v.1.15,2013-04-02 20:30:00,
2013-04-02 16:40:00,78.1,66.2,30.03,East,84,6.0,8.0,67,0.00,,,0.00,Wunderground v.1.15,2013-04-02 20:40:00,
2013-04-02 16:50:00,77.8,66.4,30.03,East,87,6.0,6.0,68,0.00,,,0.00,Wunderground v.1.15,2013-04-02 20:50:00,
2013-04-02 17:00:00,78.3,66.4,30.03,ENE,64,5.0,6.0,67,0.00,,,0.00,Wunderground v.1.15,2013-04-02 21:00:00,
2013-04-02 17:10:00,78.0,67.0,30.03,East,87,6.0,8.0,69,0.00,,,0.00,Wunderground v.1.15,2013-04-02 21:10:00,
2013-04-02 17:20:00,77.6,66.6,30.03,NNE,15,7.0,9.0,69,0.00,,,0.00,Wunderground v.1.15,2013-04-02 21:20:00,
2013-04-02 17:30:00,77.3,66.3,30.03,ENE,70,7.0,7.0,69,0.00,,,0.00,Wunderground v.1.15,2013-04-02 21:30:00,
2013-04-02 17:40:00,77.3,66.7,30.04,NE,44,7.0,12.0,70,0.00,,,0.00,Wunderground v.1.15,2013-04-02 21:40:00,
2013-04-02 17:50:00,77.2,67.1,30.03,ENE,77,6.0,8.0,71,0.00,,,0.00,Wunderground v.1.15,2013-04-02 21:50:00,
2013-04-02 18:00:00,77.0,66.9,30.04,ENE,67,6.0,7.0,71,0.00,,,0.00,Wunderground v.1.15,2013-04-02 22:00:00,
2013-04-02 18:10:00,76.8,66.7,30.04,NE,37,7.0,11.0,71,0.00,,,0.00,Wunderground v.1.15,2013-04-02 22:10:00,
2013-04-02 18:20:00,76.8,67.1,30.04,NE,37,6.0,6.0,72,0.00,,,0.00,Wunderground v.1.15,2013-04-02 22:20:00,
2013-04-02 18:30:00,76.5,67.2,30.04,East,98,7.0,7.0,73,0.00,,,0.00,Wunderground v.1.15,2013-04-02 22:30:00,
2013-04-02 18:40:00,76.4,67.1,30.04,ENE,69,6.0,6.0,73,0.00,,,0.00,Wunderground v.1.15,2013-04-02 22:40:00,
2013-04-02 18:50:00,76.2,67.3,30.04,NE,44,6.0,6.0,74,0.00,,,0.00,Wunderground v.1.15,2013-04-02 22:50:00,
2013-04-02 19:00:00,76.1,67.2,30.04,NE,40,5.0,6.0,74,0.00,,,0.00,Wunderground v.1.15,2013-04-02 23:00:00,
2013-04-02 19:10:00,76.1,67.6,30.04,ENE,71,5.0,8.0,75,0.00,,,0.00,Wunderground v.1.15,2013-04-02 23:10:00,
2013-04-02 19:20:00,75.8,67.7,30.04,NE,44,5.0,5.0,76,0.00,,,0.00,Wunderground v.1.15,2013-04-02 23:20:00,
2013-04-02 19:30:00,75.3,67.2,30.04,ENE,68,4.0,4.0,76,0.00,,,0.00,Wunderground v.1.15,2013-04-02 23:30:00,
2013-04-02 19:40:00,74.9,66.8,30.04,ENE,68,5.0,5.0,76,0.00,,,0.00,Wunderground v.1.15,2013-04-02 23:40:00,
2013-04-02 19:50:00,74.9,66.8,30.05,ENE,64,4.0,4.0,76,0.00,,,0.00,Wunderground v.1.15,2013-04-02 23:50:00,
2013-04-02 20:00:00,74.8,67.1,30.05,SE,141,3.0,3.0,77,0.00,,,0.00,Wunderground v.1.15,2013-04-03 00:00:00,
2013-04-02 20:10:00,74.6,66.9,30.05,ENE,71,4.0,4.0,77,0.00,,,0.00,Wunderground v.1.15,2013-04-03 00:10:00,
2013-04-02 20:20:00,74.7,67.0,30.05,ENE,60,4.0,4.0,77,0.00,,,0.00,Wunderground v.1.15,2013-04-03 00:20:00,
2013-04-02 20:30:00,74.7,67.4,30.06,NE,53,4.0,8.0,78,0.00,,,0.00,Wunderground v.1.15,2013-04-03 00:30:00,
2013-04-02 20:40:00,74.7,67.4,30.06,ENE,65,4.0,4.0,78,0.00,,,0.00,Wunderground v.1.15,2013-04-03 00:40:00,
2013-04-02 20:50:00,74.6,67.3,30.06,ENE,68,4.0,4.0,78,0.00,,,0.00,Wunderground v.1.15,2013-04-03 00:50:00,
2013-04-02 21:00:00,74.5,67.2,30.07,East,91,4.0,4.0,78,0.00,,,0.00,Wunderground v.1.15,2013-04-03 01:00:00,
2013-04-02 21:10:00,74.5,67.2,30.07,NE,43,4.0,4.0,78,0.00,,,0.00,Wunderground v.1.15,2013-04-03 01:10:00,
2013-04-02 21:20:00,74.5,67.2,30.07,ENE,60,5.0,5.0,78,0.00,,,0.00,Wunderground v.1.15,2013-04-03 01:20:00,
2013-04-02 21:30:00,74.6,67.7,30.07,East,91,4.0,4.0,79,0.00,,,0.00,Wunderground v.1.15,2013-04-03 01:30:00,
2013-04-02 21:40:00,74.6,67.7,30.07,ENE,72,4.0,4.0,79,0.00,,,0.00,Wunderground v.1.15,2013-04-03 01:40:00,
2013-04-02 21:50:00,74.5,67.6,30.08,East,91,4.0,5.0,79,0.00,,,0.00,Wunderground v.1.15,2013-04-03 01:50:00,
2013-04-02 22:00:00,74.6,68.0,30.08,East,94,4.0,4.0,80,0.00,,,0.00,Wunderground v.1.15,2013-04-03 02:00:00,
2013-04-02 22:10:00,74.5,67.9,30.08,NE,34,4.0,4.0,80,0.00,,,0.00,Wunderground v.1.15,2013-04-03 02:10:00,
2013-04-02 22:30:00,74.4,67.8,30.08,ENE,77,4.0,4.0,80,0.00,,,0.00,Wunderground v.1.15,2013-04-03 02:30:00,
2013-04-02 22:40:00,74.5,67.9,30.09,ESE,110,4.0,4.0,80,0.00,,,0.00,Wunderground v.1.15,2013-04-03 02:40:00,
2013-04-02 22:50:00,74.4,67.8,30.09,East,93,5.0,6.0,80,0.00,,,0.00,Wunderground v.1.15,2013-04-03 02:50:00,
2013-04-02 23:00:00,74.3,67.7,30.08,ESE,109,5.0,5.0,80,0.00,,,0.00,Wunderground v.1.15,2013-04-03 03:00:00,
2013-04-02 23:10:00,74.3,68.1,30.08,ESE,104,5.0,5.0,81,0.00,,,0.00,Wunderground v.1.15,2013-04-03 03:10:00,
2013-04-02 23:20:00,74.1,67.9,30.08,ESE,107,5.0,6.0,81,0.00,,,0.00,Wunderground v.1.15,2013-04-03 03:20:00,
2013-04-02 23:30:00,74.1,67.9,30.08,ENE,72,5.0,5.0,81,0.00,,,0.00,Wunderground v.1.15,2013-04-03 03:30:00,
2013-04-02 23:40:00,73.9,67.7,30.08,East,85,3.0,3.0,81,0.00,,,0.00,Wunderground v.1.15,2013-04-03 03:40:00,